Time;durP1;ratioP1;P1;durP2;ratioP2;P2;SDS_P1;SDS_P2;PMS_P1;PMS_P2;Temp;Humidity;BMP_temperature;BMP_pressure;BME280_temperature;BME280_humidity;BME280_pressure;Samples;Min_cycle;Max_cycle;Signal;HPM_P1;HPM_P2
2022/08/30 00:01:04;;;;;;;4.97;3.22;;;19.70;99.90;;;;;;2555992;23;20004;-74
2022/08/30 00:02:05;;;;;;;8.25;3.65;;;19.70;99.90;;;;;;2555416;23;20009;-74
2022/08/30 00:03:08;;;;;;;4.45;3.30;;;19.70;99.90;;;;;;2555044;23;20012;-74
2022/08/30 00:04:09;;;;;;;6.03;3.60;;;19.70;99.90;;;;;;2556375;23;20431;-74
2022/08/30 00:05:10;;;;;;;4.00;3.10;;;19.70;99.90;;;;;;2556361;23;20013;-74
2022/08/30 00:06:13;;;;;;;7.30;3.83;;;19.70;99.90;;;;;;2555722;23;20005;-74
2022/08/30 00:07:14;;;;;;;6.18;3.20;;;19.70;99.90;;;;;;2556183;23;20005;-74
2022/08/30 00:08:15;;;;;;;5.93;3.33;;;19.70;99.90;;;;;;2556721;23;20072;-74
2022/08/30 00:09:16;;;;;;;5.53;3.50;;;19.70;99.90;;;;;;2555350;23;20453;-74
2022/08/30 00:10:17;;;;;;;6.68;3.42;;;19.70;99.90;;;;;;2555326;23;20452;-74
2022/08/30 00:11:23;;;;;;;6.78;3.30;;;19.70;99.90;;;;;;2555196;23;20088;-74
2022/08/30 00:12:24;;;;;;;4.65;3.05;;;19.70;99.90;;;;;;2555789;23;20012;-74
2022/08/30 00:13:25;;;;;;;5.80;3.10;;;19.70;99.90;;;;;;2556328;23;20039;-74
2022/08/30 00:14:26;;;;;;;5.32;3.08;;;19.70;99.90;;;;;;2556490;23;20001;-74
2022/08/30 00:15:28;;;;;;;5.43;3.10;;;19.70;99.90;;;;;;2555302;23;20468;-74
2022/08/30 00:16:28;;;;;;;4.65;3.05;;;19.70;99.90;;;;;;2554879;23;20720;-74
2022/08/30 00:17:29;;;;;;;4.72;3.22;;;19.70;99.90;;;;;;2555794;23;20013;-74
2022/08/30 00:18:29;;;;;;;5.07;2.88;;;19.70;99.90;;;;;;2556572;23;20004;-74
2022/08/30 00:19:30;;;;;;;6.60;3.30;;;19.70;99.90;;;;;;2555739;23;20464;-74
2022/08/30 00:20:34;;;;;;;7.45;3.53;;;19.70;99.90;;;;;;2555427;23;20005;-74
2022/08/30 00:21:34;;;;;;;3.45;2.72;;;19.70;99.90;;;;;;2556567;23;20068;-74
2022/08/30 00:22:35;;;;;;;4.43;3.45;;;19.70;99.90;;;;;;2555861;23;20005;-74
2022/08/30 00:23:36;;;;;;;5.38;3.25;;;19.70;99.90;;;;;;2555805;23;20001;-74
2022/08/30 00:24:37;;;;;;;5.97;3.20;;;19.70;99.90;;;;;;2555369;23;20009;-74
2022/08/30 00:25:38;;;;;;;7.90;3.55;;;19.70;99.90;;;;;;2555117;23;20005;-74
2022/08/30 00:26:38;;;;;;;4.65;3.10;;;19.70;99.90;;;;;;2555114;23;20012;-74
2022/08/30 00:27:40;;;;;;;6.32;3.35;;;19.70;99.90;;;;;;2556365;23;19993;-74
2022/08/30 00:28:41;;;;;;;7.63;3.50;;;19.70;99.90;;;;;;2555952;23;20377;-74
2022/08/30 00:29:42;;;;;;;3.97;3.05;;;19.70;99.90;;;;;;2556450;23;20004;-74
2022/08/30 00:30:43;;;;;;;4.05;3.13;;;19.70;99.90;;;;;;2556091;23;20008;-74
2022/08/30 00:31:43;;;;;;;5.85;3.17;;;19.70;99.90;;;;;;2556205;23;20005;-74
2022/08/30 00:32:44;;;;;;;7.60;3.30;;;19.70;99.90;;;;;;2556045;23;20080;-74
2022/08/30 00:33:45;;;;;;;5.88;3.75;;;19.70;99.90;;;;;;2554829;23;20329;-74
2022/08/30 00:34:46;;;;;;;4.10;2.92;;;19.70;99.90;;;;;;2555543;23;20124;-74
2022/08/30 00:35:47;;;;;;;3.90;3.45;;;19.60;99.90;;;;;;2556317;23;20365;-74
2022/08/30 00:36:47;;;;;;;3.33;2.92;;;19.70;99.90;;;;;;2556382;23;20032;-74
2022/08/30 00:37:49;;;;;;;3.38;3.08;;;19.70;99.90;;;;;;2555839;23;20004;-74
2022/08/30 00:38:50;;;;;;;5.10;2.85;;;19.70;99.90;;;;;;2555662;23;20621;-74
2022/08/30 00:39:50;;;;;;;3.63;2.83;;;19.70;99.90;;;;;;2555984;23;19997;-74
2022/08/30 00:40:52;;;;;;;7.65;3.30;;;19.70;99.90;;;;;;2557812;23;20024;-74
2022/08/30 00:41:52;;;;;;;3.30;2.83;;;19.60;99.90;;;;;;2556526;23;20009;-74
2022/08/30 00:42:57;;;;;;;7.50;3.55;;;19.70;99.90;;;;;;2556400;23;20005;-73
2022/08/30 00:43:58;;;;;;;4.35;3.50;;;19.70;99.90;;;;;;2557020;23;20016;-74
2022/08/30 00:44:59;;;;;;;4.10;3.47;;;19.70;99.90;;;;;;2556839;23;20100;-74
2022/08/30 00:46:03;;;;;;;4.20;3.53;;;19.60;99.90;;;;;;2557570;23;20005;-74
2022/08/30 00:47:03;;;;;;;4.28;3.25;;;19.60;99.90;;;;;;2557771;23;20748;-74
2022/08/30 00:48:05;;;;;;;6.82;3.28;;;19.60;99.90;;;;;;2556979;23;20393;-74
2022/08/30 00:49:09;;;;;;;5.70;3.28;;;19.60;99.90;;;;;;2557716;23;20033;-74
2022/08/30 00:50:12;;;;;;;3.75;3.25;;;19.60;99.90;;;;;;2557615;23;20025;-74
2022/08/30 00:51:14;;;;;;;5.05;3.70;;;19.60;99.90;;;;;;2557081;23;20043;-74
2022/08/30 00:52:17;;;;;;;3.40;3.10;;;19.60;99.90;;;;;;2556561;23;20012;-74
2022/08/30 00:53:23;;;;;;;9.38;3.45;;;19.60;99.90;;;;;;2556143;23;20473;-74
2022/08/30 00:54:24;;;;;;;4.82;3.67;;;19.60;99.90;;;;;;2557567;23;20012;-74
2022/08/30 00:55:26;;;;;;;5.68;3.78;;;19.60;99.90;;;;;;2557814;23;20307;-74
2022/08/30 00:56:29;;;;;;;4.88;3.25;;;19.60;99.90;;;;;;2555990;23;20009;-74
2022/08/30 00:57:31;;;;;;;7.70;3.28;;;19.60;99.90;;;;;;2556587;23;20011;-74
2022/08/30 00:58:35;;;;;;;4.70;3.22;;;19.60;99.90;;;;;;2544473;23;20068;-75
2022/08/30 00:59:37;;;;;;;8.18;3.25;;;19.60;99.90;;;;;;2556889;23;20543;-74
2022/08/30 01:00:38;;;;;;;3.47;3.17;;;19.60;99.90;;;;;;2557882;23;20016;-74
2022/08/30 01:01:38;;;;;;;8.20;3.90;;;19.60;99.90;;;;;;2557631;23;20575;-74
2022/08/30 01:02:39;;;;;;;5.72;3.40;;;19.60;99.90;;;;;;2556646;23;20422;-74
2022/08/30 01:03:42;;;;;;;3.97;3.58;;;19.60;99.90;;;;;;2556399;23;20001;-74
2022/08/30 01:04:43;;;;;;;4.10;3.30;;;19.60;99.90;;;;;;2556277;23;20005;-74
2022/08/30 01:05:46;;;;;;;5.13;3.40;;;19.60;99.90;;;;;;2557078;23;20001;-74
2022/08/30 01:06:47;;;;;;;3.63;3.08;;;19.60;99.90;;;;;;2557742;23;20005;-74
2022/08/30 01:07:47;;;;;;;3.38;3.08;;;19.60;99.90;;;;;;2557715;23;20061;-74
2022/08/30 01:08:48;;;;;;;4.82;3.17;;;19.60;99.90;;;;;;2557510;23;20001;-74
2022/08/30 01:09:49;;;;;;;4.72;3.22;;;19.60;99.90;;;;;;2557231;23;20419;-74
2022/08/30 01:10:52;;;;;;;3.65;2.90;;;19.60;99.90;;;;;;2557595;23;19997;-74
2022/08/30 01:11:52;;;;;;;6.38;3.53;;;19.50;99.90;;;;;;2557732;23;20023;-74
2022/08/30 01:12:53;;;;;;;4.15;3.25;;;19.50;99.90;;;;;;2557754;23;20015;-74
2022/08/30 01:13:55;;;;;;;5.78;3.20;;;19.60;99.90;;;;;;2556391;23;20013;-74
2022/08/30 01:14:57;;;;;;;6.25;3.60;;;19.60;99.90;;;;;;2557011;23;20463;-74
2022/08/30 01:15:59;;;;;;;3.58;3.20;;;19.50;99.90;;;;;;2557286;23;20096;-74
2022/08/30 01:17:00;;;;;;;3.90;3.50;;;19.60;99.90;;;;;;2556488;23;20421;-74
2022/08/30 01:18:02;;;;;;;3.78;3.20;;;19.50;99.90;;;;;;2556841;23;20378;-74
2022/08/30 01:19:05;;;;;;;5.43;3.28;;;19.60;99.90;;;;;;2556966;23;19997;-74
2022/08/30 01:20:10;;;;;;;5.05;3.47;;;19.50;99.90;;;;;;2557651;23;19997;-74
2022/08/30 01:21:27;;;;;;;5.03;3.20;;;19.60;99.90;;;;;;2557529;23;20025;-74
2022/08/30 01:22:50;;;;;;;4.65;3.20;;;19.50;99.90;;;;;;2557779;23;20005;-74
2022/08/30 01:23:54;;;;;;;4.50;3.10;;;19.50;99.90;;;;;;2556988;23;20031;-74
2022/08/30 01:24:57;;;;;;;4.60;3.08;;;19.50;99.90;;;;;;2556482;23;20009;-74
2022/08/30 01:26:01;;;;;;;4.85;3.05;;;19.50;99.90;;;;;;2556430;23;20087;-74
2022/08/30 01:27:01;;;;;;;4.72;3.70;;;19.50;99.90;;;;;;2556894;23;20008;-74
2022/08/30 01:28:09;;;;;;;5.13;3.33;;;19.50;99.90;;;;;;2556860;23;20088;-74
2022/08/30 01:29:16;;;;;;;6.72;3.10;;;19.50;99.90;;;;;;2557101;23;20060;-74
2022/08/30 01:30:17;;;;;;;3.38;3.08;;;19.60;99.90;;;;;;2557775;23;20004;-74
2022/08/30 01:31:18;;;;;;;6.15;3.45;;;19.60;99.90;;;;;;2557578;23;20650;-74
2022/08/30 01:32:23;;;;;;;3.30;3.00;;;19.60;99.90;;;;;;2556744;23;20048;-74
2022/08/30 01:33:24;;;;;;;3.55;3.13;;;19.60;99.90;;;;;;2556219;23;20084;-74
2022/08/30 01:34:25;;;;;;;7.20;3.72;;;19.50;99.90;;;;;;2556874;23;20035;-74
2022/08/30 01:35:26;;;;;;;3.45;3.00;;;19.60;99.90;;;;;;2557647;23;20016;-74
2022/08/30 01:36:27;;;;;;;2.95;2.72;;;19.50;99.90;;;;;;2556540;23;20005;-74
2022/08/30 01:37:31;;;;;;;4.43;2.90;;;19.50;99.90;;;;;;2557758;23;20311;-74
2022/08/30 01:38:35;;;;;;;4.68;2.92;;;19.50;99.90;;;;;;2557349;23;20001;-74
2022/08/30 01:39:36;;;;;;;4.03;2.88;;;19.60;99.90;;;;;;2557526;23;20055;-74
2022/08/30 01:40:37;;;;;;;8.75;3.10;;;19.50;99.90;;;;;;2557562;23;20683;-74
2022/08/30 01:41:38;;;;;;;3.42;3.08;;;19.60;99.90;;;;;;2557338;23;20051;-74
2022/08/30 01:42:39;;;;;;;5.97;3.30;;;19.50;99.90;;;;;;2557887;23;20045;-74
2022/08/30 01:43:40;;;;;;;3.80;2.85;;;19.60;99.90;;;;;;2557292;23;20000;-74
2022/08/30 01:44:40;;;;;;;5.97;3.00;;;19.60;99.90;;;;;;2556449;23;20372;-74
2022/08/30 01:45:41;;;;;;;4.63;2.95;;;19.60;99.90;;;;;;2556432;23;20005;-73
2022/08/30 01:46:45;;;;;;;5.35;2.75;;;19.60;99.90;;;;;;2557401;23;20001;-74
2022/08/30 01:47:46;;;;;;;4.10;3.25;;;19.50;99.90;;;;;;2556229;23;20012;-74
2022/08/30 01:48:47;;;;;;;4.68;3.30;;;19.50;99.90;;;;;;2556979;23;20004;-74
2022/08/30 01:49:47;;;;;;;5.38;3.47;;;19.50;99.90;;;;;;2557534;23;20001;-74
2022/08/30 01:50:48;;;;;;;5.15;2.92;;;19.50;99.90;;;;;;2556734;23;20008;-74
2022/08/30 01:51:48;;;;;;;3.67;2.72;;;19.50;99.90;;;;;;2555403;23;20741;-74
2022/08/30 01:52:49;;;;;;;5.03;3.30;;;19.50;99.90;;;;;;2556366;23;20023;-74
2022/08/30 01:53:49;;;;;;;3.78;2.78;;;19.50;99.90;;;;;;2556717;23;20004;-74
2022/08/30 01:54:51;;;;;;;3.63;3.00;;;19.50;99.90;;;;;;2556518;23;20385;-74
2022/08/30 01:55:51;;;;;;;5.43;3.15;;;19.50;99.90;;;;;;2555608;23;20001;-74
2022/08/30 01:56:52;;;;;;;3.63;2.60;;;19.50;99.90;;;;;;2556137;23;20047;-74
2022/08/30 01:57:52;;;;;;;3.03;2.75;;;19.50;99.90;;;;;;2556858;23;20005;-74
2022/08/30 01:58:53;;;;;;;4.53;3.28;;;19.50;99.90;;;;;;2556316;23;20527;-74
2022/08/30 01:59:54;;;;;;;5.45;3.13;;;19.50;99.90;;;;;;2556003;23;20005;-74
2022/08/30 02:00:55;;;;;;;5.80;3.10;;;19.50;99.90;;;;;;2555922;23;20039;-74
2022/08/30 02:01:55;;;;;;;3.65;2.50;;;19.50;99.90;;;;;;2556163;23;20013;-74
2022/08/30 02:02:56;;;;;;;5.28;3.08;;;19.50;99.90;;;;;;2556752;23;20422;-74
2022/08/30 02:03:57;;;;;;;4.55;3.05;;;19.40;99.90;;;;;;2554111;23;20012;-74
2022/08/30 02:04:58;;;;;;;6.10;2.72;;;19.50;99.90;;;;;;2555834;23;20001;-74
2022/08/30 02:06:06;;;;;;;5.25;3.03;;;19.40;99.90;;;;;;2556516;23;20036;-74
2022/08/30 02:07:06;;;;;;;5.30;3.10;;;19.40;99.90;;;;;;2556713;23;20001;-74
2022/08/30 02:08:07;;;;;;;4.88;2.45;;;19.40;99.90;;;;;;2555885;23;20020;-74
2022/08/30 02:09:08;;;;;;;5.75;3.17;;;19.40;99.90;;;;;;2556222;23;20009;-74
2022/08/30 02:10:09;;;;;;;3.72;2.78;;;19.40;99.90;;;;;;2556037;23;20013;-74
2022/08/30 02:11:11;;;;;;;3.15;2.83;;;19.40;99.90;;;;;;2556045;23;20001;-74
2022/08/30 02:12:11;;;;;;;5.18;2.83;;;19.40;99.90;;;;;;2557100;23;20059;-74
2022/08/30 02:13:12;;;;;;;5.63;2.80;;;19.40;99.90;;;;;;2556132;23;20063;-74
2022/08/30 02:14:13;;;;;;;4.05;3.22;;;19.40;99.90;;;;;;2555851;23;20036;-74
2022/08/30 02:15:14;;;;;;;3.63;2.50;;;19.40;99.90;;;;;;2555907;23;20060;-74
2022/08/30 02:16:21;;;;;;;5.03;3.03;;;19.40;99.90;;;;;;2556095;23;20012;-74
2022/08/30 02:17:22;;;;;;;3.28;2.60;;;19.50;99.90;;;;;;2556806;23;20011;-74
2022/08/30 02:18:24;;;;;;;3.67;3.28;;;19.40;99.90;;;;;;2556923;23;20008;-74
2022/08/30 02:19:24;;;;;;;5.03;3.35;;;19.40;99.90;;;;;;2556408;23;20071;-74
2022/08/30 02:20:25;;;;;;;3.45;2.60;;;19.40;99.90;;;;;;2555854;23;20005;-74
2022/08/30 02:21:28;;;;;;;5.65;3.22;;;19.40;99.90;;;;;;2555592;23;20009;-74
2022/08/30 02:22:29;;;;;;;4.10;2.97;;;19.40;99.90;;;;;;2556247;23;20492;-74
2022/08/30 02:23:30;;;;;;;2.97;2.70;;;19.40;99.90;;;;;;2556570;23;20576;-74
2022/08/30 02:24:30;;;;;;;5.57;2.70;;;19.40;99.90;;;;;;2556511;23;20032;-74
2022/08/30 02:25:31;;;;;;;5.03;2.65;;;19.40;99.90;;;;;;2556887;23;20088;-74
2022/08/30 02:26:32;;;;;;;6.90;2.97;;;19.40;99.90;;;;;;2556378;23;20080;-74
2022/08/30 02:27:33;;;;;;;3.17;2.90;;;19.40;99.90;;;;;;2556771;23;20132;-74
2022/08/30 02:28:34;;;;;;;4.63;3.38;;;19.30;99.90;;;;;;2557346;23;20523;-74
2022/08/30 02:29:34;;;;;;;3.22;2.53;;;19.40;99.90;;;;;;2556331;23;19997;-74
2022/08/30 02:30:35;;;;;;;4.78;2.67;;;19.30;99.90;;;;;;2556612;23;20001;-74
2022/08/30 02:31:36;;;;;;;3.38;3.08;;;19.40;99.90;;;;;;2556941;23;19993;-74
2022/08/30 02:32:37;;;;;;;2.95;2.35;;;19.30;99.90;;;;;;2556434;23;20012;-74
2022/08/30 02:33:37;;;;;;;4.75;3.13;;;19.30;99.90;;;;;;2556430;23;20063;-74
2022/08/30 02:34:38;;;;;;;4.85;3.17;;;19.30;99.90;;;;;;2556438;23;19993;-74
2022/08/30 02:35:39;;;;;;;3.97;2.58;;;19.30;99.90;;;;;;2556393;23;20001;-74
2022/08/30 02:36:40;;;;;;;4.80;3.00;;;19.30;99.90;;;;;;2556797;23;19993;-74
2022/08/30 02:37:41;;;;;;;3.10;2.80;;;19.20;99.90;;;;;;2555872;23;20031;-74
2022/08/30 02:38:41;;;;;;;4.75;2.88;;;19.20;99.90;;;;;;2556013;23;20000;-74
2022/08/30 02:39:42;;;;;;;4.47;2.80;;;19.20;99.90;;;;;;2556648;23;20076;-74
2022/08/30 02:40:43;;;;;;;6.20;3.15;;;19.20;99.90;;;;;;2556553;23;20078;-74
2022/08/30 02:41:44;;;;;;;3.05;2.80;;;19.20;99.90;;;;;;2555995;23;20020;-74
2022/08/30 02:42:45;;;;;;;3.70;2.60;;;19.20;99.90;;;;;;2555589;23;20020;-74
2022/08/30 02:43:45;;;;;;;4.85;2.78;;;19.20;99.90;;;;;;2556408;23;20020;-74
2022/08/30 02:44:46;;;;;;;3.80;2.15;;;19.20;99.90;;;;;;2556634;23;20051;-74
2022/08/30 02:45:47;;;;;;;3.40;3.10;;;19.20;99.90;;;;;;2556572;23;20005;-74
2022/08/30 02:46:47;;;;;;;5.65;3.15;;;19.20;99.90;;;;;;2556725;23;20434;-74
2022/08/30 02:47:48;;;;;;;3.25;2.90;;;19.20;99.90;;;;;;2556657;23;20059;-74
2022/08/30 02:48:49;;;;;;;4.20;3.10;;;19.20;99.90;;;;;;2556375;23;20442;-74
2022/08/30 02:49:49;;;;;;;3.55;2.42;;;19.20;99.90;;;;;;2556735;23;20337;-74
2022/08/30 02:50:51;;;;;;;4.82;3.13;;;19.10;99.90;;;;;;2556939;23;20001;-74
2022/08/30 02:51:52;;;;;;;5.78;3.80;;;19.10;99.90;;;;;;2560465;23;20457;-74
2022/08/30 02:52:53;;;;;;;3.38;2.70;;;19.10;99.90;;;;;;2555789;23;20366;-74
2022/08/30 02:53:53;;;;;;;4.38;2.88;;;19.10;99.90;;;;;;2555568;23;20468;-74
2022/08/30 02:54:54;;;;;;;3.75;2.58;;;19.10;99.90;;;;;;2555676;23;20011;-74
2022/08/30 02:55:54;;;;;;;2.92;2.63;;;19.10;99.90;;;;;;2555472;23;20140;-74
2022/08/30 02:56:56;;;;;;;3.40;3.10;;;19.10;99.90;;;;;;2555298;23;20092;-74
2022/08/30 02:57:56;;;;;;;4.35;2.60;;;19.10;99.90;;;;;;2555946;23;20008;-74
2022/08/30 02:58:57;;;;;;;3.50;3.10;;;19.10;99.90;;;;;;2568739;23;20467;-74
2022/08/30 02:59:58;;;;;;;4.22;2.97;;;19.00;99.90;;;;;;2568832;23;20005;-74
2022/08/30 03:00:58;;;;;;;4.20;2.80;;;19.00;99.90;;;;;;2569165;23;20003;-74
2022/08/30 03:01:59;;;;;;;4.18;3.00;;;19.00;99.90;;;;;;2568855;23;20004;-74
2022/08/30 03:03:02;;;;;;;5.65;3.40;;;19.00;99.90;;;;;;2568459;23;20519;-74
2022/08/30 03:04:03;;;;;;;3.45;2.58;;;19.00;99.90;;;;;;2568962;23;20005;-74
2022/08/30 03:05:05;;;;;;;3.08;2.65;;;19.00;99.90;;;;;;2569081;23;20064;-74
2022/08/30 03:06:06;;;;;;;2.63;2.42;;;19.00;99.90;;;;;;2568788;23;20387;-74
2022/08/30 03:07:07;;;;;;;3.28;2.75;;;19.00;99.90;;;;;;2568597;23;20072;-74
2022/08/30 03:08:08;;;;;;;3.22;2.72;;;19.00;99.90;;;;;;2569176;23;20005;-74
2022/08/30 03:09:08;;;;;;;3.88;2.80;;;19.00;99.90;;;;;;2569085;23;20005;-74
2022/08/30 03:10:10;;;;;;;4.93;3.03;;;19.00;99.90;;;;;;2555703;23;20008;-74
2022/08/30 03:11:12;;;;;;;4.20;3.15;;;19.00;99.90;;;;;;2555804;23;20017;-74
2022/08/30 03:12:13;;;;;;;4.90;2.72;;;19.00;99.90;;;;;;2555526;23;20093;-74
2022/08/30 03:13:14;;;;;;;3.00;2.58;;;19.00;99.90;;;;;;2555281;23;20009;-74
2022/08/30 03:14:14;;;;;;;2.92;2.50;;;18.90;99.90;;;;;;2555841;23;20088;-74
2022/08/30 03:15:15;;;;;;;2.95;2.63;;;19.00;99.90;;;;;;2555826;23;20520;-74
2022/08/30 03:16:16;;;;;;;3.83;2.40;;;18.90;99.90;;;;;;2568108;23;20011;-74
2022/08/30 03:17:16;;;;;;;3.90;3.10;;;18.90;99.90;;;;;;2568905;23;20436;-74
2022/08/30 03:18:18;;;;;;;5.10;2.78;;;18.90;99.90;;;;;;2568850;23;20013;-74
2022/08/30 03:19:19;;;;;;;3.05;2.75;;;18.90;99.90;;;;;;2569028;23;20004;-74
2022/08/30 03:20:21;;;;;;;3.92;3.42;;;18.80;99.90;;;;;;2569071;23;20001;-74
2022/08/30 03:21:22;;;;;;;3.83;3.10;;;18.90;99.90;;;;;;2569089;23;19996;-74
2022/08/30 03:22:22;;;;;;;4.35;3.10;;;18.80;99.90;;;;;;2568928;23;20001;-74
2022/08/30 03:23:23;;;;;;;4.25;3.55;;;18.80;99.90;;;;;;2554910;23;20025;-74
2022/08/30 03:24:24;;;;;;;3.90;3.05;;;18.80;99.90;;;;;;2555668;23;20059;-74
2022/08/30 03:25:25;;;;;;;5.90;3.30;;;18.80;99.90;;;;;;2555736;23;20028;-74
2022/08/30 03:26:26;;;;;;;4.78;3.45;;;18.80;99.90;;;;;;2555347;23;20016;-74
2022/08/30 03:27:28;;;;;;;3.17;2.88;;;18.80;99.90;;;;;;2555790;23;20392;-74
2022/08/30 03:28:28;;;;;;;3.00;2.70;;;18.70;99.90;;;;;;2568808;23;20000;-74
2022/08/30 03:29:29;;;;;;;4.18;3.60;;;18.70;99.90;;;;;;2569128;23;20007;-74
2022/08/30 03:30:29;;;;;;;3.03;2.80;;;18.70;99.90;;;;;;2555491;23;20009;-74
2022/08/30 03:31:30;;;;;;;3.40;3.10;;;18.70;99.90;;;;;;2555665;23;20381;-74
2022/08/30 03:32:30;;;;;;;3.47;3.17;;;18.60;99.90;;;;;;2568632;23;20027;-74
2022/08/30 03:33:31;;;;;;;6.55;3.33;;;18.60;99.90;;;;;;2568549;23;20001;-74
2022/08/30 03:34:32;;;;;;;5.00;3.70;;;18.70;99.90;;;;;;2568812;23;20051;-74
2022/08/30 03:35:32;;;;;;;3.03;2.58;;;18.60;99.90;;;;;;2568741;23;20076;-74
2022/08/30 03:36:33;;;;;;;3.20;2.95;;;18.60;99.90;;;;;;2555610;23;20325;-74
2022/08/30 03:37:34;;;;;;;3.95;2.75;;;18.60;99.90;;;;;;2556015;23;20055;-74
2022/08/30 03:38:35;;;;;;;3.95;2.80;;;18.60;99.90;;;;;;2555713;23;20005;-74
2022/08/30 03:39:36;;;;;;;4.35;2.90;;;18.60;99.90;;;;;;2555457;23;19993;-74
2022/08/30 03:40:36;;;;;;;3.40;3.10;;;18.60;99.90;;;;;;2569071;23;19996;-74
2022/08/30 03:41:37;;;;;;;4.88;2.88;;;18.60;99.90;;;;;;2568997;23;20360;-74
2022/08/30 03:42:38;;;;;;;2.55;2.25;;;18.60;99.90;;;;;;2568951;23;20113;-74
2022/08/30 03:43:38;;;;;;;2.53;2.30;;;18.50;99.90;;;;;;2568703;23;20000;-74
2022/08/30 03:44:39;;;;;;;3.83;3.17;;;18.50;99.90;;;;;;2568748;23;20024;-74
2022/08/30 03:45:40;;;;;;;5.60;3.08;;;18.50;99.90;;;;;;2554806;23;20009;-74
2022/08/30 03:46:40;;;;;;;4.35;3.28;;;18.50;99.90;;;;;;2555504;23;20023;-75
2022/08/30 03:47:41;;;;;;;4.57;3.20;;;18.50;99.90;;;;;;2555422;23;20013;-74
2022/08/30 03:48:42;;;;;;;3.40;3.10;;;18.50;99.90;;;;;;2555691;23;20329;-74
2022/08/30 03:49:43;;;;;;;3.00;2.70;;;18.50;99.90;;;;;;2568671;23;20329;-74
2022/08/30 03:50:44;;;;;;;4.22;2.97;;;18.50;99.90;;;;;;2568843;23;20080;-74
2022/08/30 03:51:44;;;;;;;2.85;2.63;;;18.50;99.90;;;;;;2568807;23;19997;-74
2022/08/30 03:52:45;;;;;;;3.65;2.40;;;18.40;99.90;;;;;;2567993;23;20301;-74
2022/08/30 03:53:45;;;;;;;5.07;2.58;;;18.40;99.90;;;;;;2567396;23;19992;-74
2022/08/30 03:54:46;;;;;;;2.83;2.63;;;18.40;99.90;;;;;;2568398;23;20005;-74
2022/08/30 03:55:47;;;;;;;3.45;2.70;;;18.40;99.90;;;;;;2555000;23;20005;-74
2022/08/30 03:56:47;;;;;;;3.95;3.22;;;18.40;99.90;;;;;;2555609;23;20001;-74
2022/08/30 03:57:48;;;;;;;5.38;3.13;;;18.40;99.90;;;;;;2555258;23;20028;-74
2022/08/30 03:58:49;;;;;;;4.70;3.08;;;18.40;99.90;;;;;;2555707;23;20120;-74
2022/08/30 03:59:49;;;;;;;3.67;3.03;;;18.40;99.90;;;;;;2568769;23;20003;-74
2022/08/30 04:00:50;;;;;;;3.42;3.13;;;18.40;99.90;;;;;;2555470;23;20016;-74
2022/08/30 04:01:50;;;;;;;5.03;3.25;;;18.40;99.90;;;;;;2555496;23;20001;-74
2022/08/30 04:02:51;;;;;;;3.05;2.85;;;18.40;99.90;;;;;;2568800;23;19996;-74
2022/08/30 04:03:52;;;;;;;3.97;3.10;;;18.30;99.90;;;;;;2568249;23;20000;-74
2022/08/30 04:04:52;;;;;;;5.22;3.15;;;18.30;99.90;;;;;;2568973;23;20005;-74
2022/08/30 04:05:54;;;;;;;3.58;3.10;;;18.30;99.90;;;;;;2568320;23;20916;-74
2022/08/30 04:06:55;;;;;;;4.00;3.00;;;18.30;99.90;;;;;;2568841;23;20016;-74
2022/08/30 04:07:55;;;;;;;2.90;2.42;;;18.30;99.90;;;;;;2555391;23;20087;-74
2022/08/30 04:08:56;;;;;;;2.55;2.25;;;18.30;99.90;;;;;;2543310;23;20013;-74
2022/08/30 04:09:56;;;;;;;3.42;2.42;;;18.30;99.90;;;;;;2555511;23;20012;-74
2022/08/30 04:10:58;;;;;;;6.28;2.53;;;18.30;99.90;;;;;;2568591;23;20321;-74
2022/08/30 04:11:59;;;;;;;3.25;2.78;;;18.30;99.90;;;;;;2568694;23;20009;-74
2022/08/30 04:12:59;;;;;;;3.55;2.50;;;18.30;99.90;;;;;;2568120;23;20000;-74
2022/08/30 04:14:00;;;;;;;3.65;3.10;;;18.30;99.90;;;;;;2568887;23;20602;-74
2022/08/30 04:15:01;;;;;;;5.07;3.28;;;18.30;99.90;;;;;;2568113;23;20413;-74
2022/08/30 04:16:02;;;;;;;5.43;3.65;;;18.30;99.90;;;;;;2568260;23;20008;-74
2022/08/30 04:17:03;;;;;;;3.97;2.60;;;18.30;99.90;;;;;;2568083;23;20455;-74
2022/08/30 04:18:04;;;;;;;3.97;3.08;;;18.30;99.90;;;;;;2568799;23;20005;-74
2022/08/30 04:19:04;;;;;;;2.88;2.47;;;18.30;99.90;;;;;;2568885;23;20433;-74
2022/08/30 04:20:06;;;;;;;2.78;2.58;;;18.20;99.90;;;;;;2568807;23;20362;-74
2022/08/30 04:21:06;;;;;;;4.00;3.05;;;18.20;99.90;;;;;;2568853;23;20027;-74
2022/08/30 04:22:07;;;;;;;3.70;3.15;;;18.20;99.90;;;;;;2568653;23;20012;-74
2022/08/30 04:23:08;;;;;;;3.90;3.03;;;18.20;99.90;;;;;;2568151;23;20028;-74
2022/08/30 04:24:08;;;;;;;3.42;2.85;;;18.20;99.90;;;;;;2555195;23;20009;-74
2022/08/30 04:25:09;;;;;;;3.25;2.90;;;18.20;99.90;;;;;;2555466;23;20084;-74
2022/08/30 04:26:10;;;;;;;3.03;2.55;;;18.20;99.90;;;;;;2555032;23;20009;-74
2022/08/30 04:27:11;;;;;;;3.55;2.97;;;18.20;99.90;;;;;;2555564;23;20005;-74
2022/08/30 04:28:12;;;;;;;2.80;2.40;;;18.20;99.90;;;;;;2555441;23;20043;-73
2022/08/30 04:29:15;;;;;;;2.83;2.63;;;18.20;99.90;;;;;;2555749;23;20074;-74
2022/08/30 04:30:16;;;;;;;2.92;2.72;;;18.20;99.90;;;;;;2568897;23;20433;-74
2022/08/30 04:31:18;;;;;;;2.53;2.33;;;18.20;99.90;;;;;;2568476;23;20069;-74
2022/08/30 04:32:18;;;;;;;3.10;2.78;;;18.20;99.90;;;;;;2568504;23;20001;-74
2022/08/30 04:33:19;;;;;;;3.47;3.17;;;18.20;99.90;;;;;;2568182;23;20000;-74
2022/08/30 04:34:20;;;;;;;4.25;3.50;;;18.20;99.90;;;;;;2568769;23;20304;-74
2022/08/30 04:35:21;;;;;;;3.40;3.10;;;18.20;99.90;;;;;;2567682;23;20005;-74
2022/08/30 04:36:22;;;;;;;3.03;2.83;;;18.10;99.90;;;;;;2567803;23;20005;-74
2022/08/30 04:37:23;;;;;;;3.35;3.03;;;18.10;99.90;;;;;;2568459;23;20019;-74
2022/08/30 04:38:23;;;;;;;3.47;3.17;;;18.10;99.90;;;;;;2568673;23;20650;-74
2022/08/30 04:39:24;;;;;;;3.50;3.20;;;18.10;99.90;;;;;;2568691;23;20005;-74
2022/08/30 04:40:24;;;;;;;3.65;3.35;;;18.10;99.90;;;;;;2568185;23;20325;-74
2022/08/30 04:41:25;;;;;;;2.35;2.25;;;18.10;99.90;;;;;;2555404;23;20741;-74
2022/08/30 04:42:30;;;;;;;2.95;2.65;;;18.10;99.90;;;;;;2555538;23;20076;-74
2022/08/30 04:43:30;;;;;;;3.13;2.63;;;18.10;99.90;;;;;;2568173;23;19996;-74
2022/08/30 04:44:31;;;;;;;3.67;3.15;;;18.00;99.90;;;;;;2555128;23;20033;-74
2022/08/30 04:45:32;;;;;;;2.78;2.58;;;18.00;99.90;;;;;;2555327;23;20502;-74
2022/08/30 04:46:34;;;;;;;4.90;3.08;;;18.00;99.90;;;;;;2555569;23;19997;-74
2022/08/30 04:47:35;;;;;;;3.22;2.88;;;18.00;99.90;;;;;;2555143;23;20002;-74
2022/08/30 04:48:37;;;;;;;3.30;3.03;;;18.00;99.90;;;;;;2555351;23;20043;-74
2022/08/30 04:49:38;;;;;;;6.20;3.38;;;18.00;99.90;;;;;;2568692;23;20440;-74
2022/08/30 04:50:38;;;;;;;4.75;2.80;;;18.00;99.90;;;;;;2568733;23;20333;-74
2022/08/30 04:51:39;;;;;;;3.72;3.03;;;18.00;99.90;;;;;;2568476;23;20023;-74
2022/08/30 04:52:40;;;;;;;3.08;2.80;;;18.00;99.90;;;;;;2568540;23;20502;-74
2022/08/30 04:53:42;;;;;;;7.32;3.30;;;18.00;99.90;;;;;;2554742;23;20005;-74
2022/08/30 04:54:42;;;;;;;3.03;2.80;;;18.00;99.90;;;;;;2555633;23;20029;-74
2022/08/30 04:55:43;;;;;;;4.20;3.28;;;17.90;99.90;;;;;;2568479;23;20000;-74
2022/08/30 04:56:43;;;;;;;8.02;3.40;;;17.90;99.90;;;;;;2568591;23;19997;-74
2022/08/30 04:57:44;;;;;;;5.78;3.88;;;17.90;99.90;;;;;;2555402;23;20001;-74
2022/08/30 04:58:46;;;;;;;3.30;3.03;;;17.90;99.90;;;;;;2555537;23;20445;-74
2022/08/30 04:59:46;;;;;;;3.53;3.13;;;17.90;99.90;;;;;;2568882;23;20339;-74
2022/08/30 05:00:47;;;;;;;3.10;2.80;;;17.90;99.90;;;;;;2568655;23;20004;-74
2022/08/30 05:01:48;;;;;;;3.58;2.80;;;17.80;99.90;;;;;;2568552;23;20381;-74
2022/08/30 05:02:48;;;;;;;4.30;2.97;;;17.80;99.90;;;;;;2567765;23;20004;-74
2022/08/30 05:03:49;;;;;;;4.18;3.33;;;17.80;99.90;;;;;;2568301;23;20103;-74
2022/08/30 05:06:14;;;;;;;2.78;2.58;;;17.80;99.90;;;;;;2568389;23;20091;-74
2022/08/30 05:07:14;;;;;;;3.75;3.38;;;17.80;99.90;;;;;;2568374;23;20221;-74
2022/08/30 05:08:18;;;;;;;4.18;3.78;;;17.80;99.90;;;;;;2568568;23;20103;-74
2022/08/30 05:09:20;;;;;;;4.28;3.30;;;17.80;99.90;;;;;;2568782;23;20012;-74
2022/08/30 05:10:21;;;;;;;3.95;3.65;;;17.80;99.90;;;;;;2568652;23;20005;-74
2022/08/30 05:11:22;;;;;;;3.75;3.30;;;17.80;99.90;;;;;;2568245;23;20012;-74
2022/08/30 05:12:23;;;;;;;3.97;3.50;;;17.70;99.90;;;;;;2555640;23;20049;-74
2022/08/30 05:13:24;;;;;;;5.15;3.78;;;17.80;99.90;;;;;;2554960;23;20429;-74
2022/08/30 05:14:24;;;;;;;4.60;3.92;;;17.70;99.90;;;;;;2568569;23;20004;-74
2022/08/30 05:15:25;;;;;;;4.45;3.83;;;17.70;99.90;;;;;;2568711;23;20000;-74
2022/08/30 05:16:25;;;;;;;5.75;3.55;;;17.70;99.90;;;;;;2554289;23;20044;-74
2022/08/30 05:17:26;;;;;;;3.92;3.45;;;17.70;99.90;;;;;;2555098;23;20009;-74
2022/08/30 05:18:27;;;;;;;3.78;3.40;;;17.70;99.90;;;;;;2568344;23;20090;-74
2022/08/30 05:19:30;;;;;;;3.75;3.45;;;17.70;99.90;;;;;;2568824;23;20015;-74
2022/08/30 05:20:31;;;;;;;7.32;3.30;;;17.70;99.90;;;;;;2568947;23;20424;-74
2022/08/30 05:21:31;;;;;;;5.32;3.97;;;17.70;99.90;;;;;;2554579;23;20481;-74